createdAt,value
2019-03-20T00:00:59.313Z,36.30
2019-03-20T00:03:30.613Z,35.95
2019-03-20T00:06:01.872Z,37.95
2019-03-20T00:08:33.261Z,41.63
2019-03-20T00:11:04.609Z,45.15
2019-03-20T00:13:36.006Z,68.72
2019-03-20T00:16:07.362Z,73.00
2019-03-20T00:18:38.740Z,64.90
2019-03-20T00:21:10.102Z,56.08
2019-03-20T00:23:41.501Z,88.47
2019-03-20T00:26:13.356Z,96.95
2019-03-20T00:28:44.654Z,66.60
2019-03-20T00:31:16.095Z,59.18
2019-03-20T00:33:47.359Z,34.30
2019-03-20T00:36:20.058Z,53.95
2019-03-20T00:38:51.464Z,49.83
2019-03-20T00:41:22.748Z,50.20
2019-03-20T00:43:55.014Z,75.50
2019-03-20T00:46:26.413Z,58.48
2019-03-20T00:48:57.939Z,49.13
2019-03-20T00:51:29.205Z,48.17
2019-03-20T00:54:00.640Z,31.62
2019-03-20T00:56:32.095Z,55.33
2019-03-20T00:59:03.435Z,60.38
2019-03-20T01:01:34.768Z,55.48
2019-03-20T01:04:06.009Z,47.98
2019-03-20T01:06:37.279Z,49.42
2019-03-20T01:09:08.574Z,45.33
2019-03-20T01:11:39.820Z,42.30
2019-03-20T01:14:11.158Z,39.95
2019-03-20T01:16:42.564Z,38.63
2019-03-20T01:19:13.976Z,37.63
2019-03-20T01:21:45.401Z,36.85
2019-03-20T01:24:16.815Z,34.92
2019-03-20T01:26:48.100Z,32.63
2019-03-20T01:29:19.502Z,33.50
2019-03-20T01:31:50.915Z,31.85
2019-03-20T01:34:22.186Z,30.37
2019-03-20T01:36:53.503Z,32.88
2019-03-20T01:39:24.847Z,29.50
2019-03-20T01:41:56.226Z,32.45
2019-03-20T01:44:27.694Z,34.25
2019-03-20T01:47:00.268Z,31.75
2019-03-20T01:49:31.645Z,37.23
2019-03-20T01:52:03.020Z,37.48
2019-03-20T01:54:34.487Z,39.05
2019-03-20T01:57:06.413Z,36.42
2019-03-20T01:59:37.794Z,34.03
2019-03-20T02:02:09.007Z,36.53
2019-03-20T02:04:40.531Z,40.58
2019-03-20T02:07:11.909Z,43.52
2019-03-20T02:09:43.283Z,40.12
2019-03-20T02:12:14.606Z,40.25
2019-03-20T02:14:46.025Z,40.33
2019-03-20T02:17:17.468Z,38.83
2019-03-20T02:19:48.886Z,40.58
2019-03-20T02:22:20.731Z,45.70
2019-03-20T02:24:51.932Z,45.75
2019-03-20T02:27:23.294Z,38.63
2019-03-20T02:29:54.551Z,57.90
2019-03-20T02:32:25.910Z,50.73
2019-03-20T02:34:57.355Z,60.92
2019-03-20T02:37:28.715Z,57.38
2019-03-20T02:39:59.983Z,53.98
2019-03-20T02:42:31.268Z,60.92
2019-03-20T02:45:02.576Z,58.38
2019-03-20T02:47:34.975Z,57.60
2019-03-20T02:50:08.667Z,62.80
2019-03-20T02:52:40.132Z,63.48
2019-03-20T02:55:12.286Z,54.65
2019-03-20T02:57:43.596Z,62.03
2019-03-20T03:00:19.840Z,57.10
2019-03-20T03:02:51.110Z,60.38
2019-03-20T03:05:22.387Z,61.90
2019-03-20T03:07:53.814Z,59.25
2019-03-20T03:10:25.219Z,42.08
2019-03-20T03:12:56.543Z,57.67
2019-03-20T03:15:27.914Z,56.58
2019-03-20T03:17:59.324Z,52.55
2019-03-20T03:20:30.665Z,52.40
2019-03-20T03:23:01.960Z,56.13
2019-03-20T03:25:33.249Z,53.90
2019-03-20T03:28:04.648Z,45.80
2019-03-20T03:30:35.976Z,60.17
2019-03-20T03:33:07.355Z,55.40
2019-03-20T03:35:38.839Z,54.55
2019-03-20T03:38:10.177Z,52.43
2019-03-20T03:40:41.500Z,52.33
2019-03-20T03:43:12.857Z,40.03
2019-03-20T03:45:44.298Z,45.70
2019-03-20T03:48:15.637Z,48.38
2019-03-20T03:50:48.417Z,51.05
2019-03-20T03:53:20.166Z,45.67
2019-03-20T03:55:51.538Z,42.50
2019-03-20T03:58:22.866Z,41.68
2019-03-20T04:00:54.217Z,32.20
2019-03-20T04:03:25.638Z,47.93
2019-03-20T04:05:57.017Z,50.40
2019-03-20T04:08:28.298Z,46.75
2019-03-20T04:10:59.677Z,48.17
2019-03-20T04:13:30.900Z,44.70
2019-03-20T04:16:02.309Z,41.48
2019-03-20T04:18:33.858Z,52.90
2019-03-20T04:21:05.153Z,49.05
2019-03-20T04:23:36.509Z,39.70
2019-03-20T04:26:07.840Z,31.55
2019-03-20T04:28:39.216Z,51.08
2019-03-20T04:31:10.643Z,45.40
2019-03-20T04:33:41.923Z,45.23
2019-03-20T04:36:13.361Z,35.73
2019-03-20T04:38:44.869Z,46.37
2019-03-20T04:41:16.380Z,50.95
2019-03-20T04:43:47.732Z,51.83
2019-03-20T04:46:19.160Z,61.33
2019-03-20T04:48:50.426Z,61.33
2019-03-20T04:51:21.788Z,56.70
2019-03-20T04:53:53.228Z,80.55
2019-03-20T04:56:24.552Z,109.92
2019-03-20T04:58:55.900Z,56.58
2019-03-20T05:01:27.322Z,69.12
2019-03-20T05:03:58.508Z,80.65
2019-03-20T05:06:29.831Z,61.85
2019-03-20T05:09:01.285Z,51.60
2019-03-20T05:11:32.904Z,50.95
2019-03-20T05:14:04.344Z,39.05
2019-03-20T05:16:35.693Z,72.05
2019-03-20T05:19:06.973Z,42.55
2019-03-20T05:21:38.281Z,50.30
2019-03-20T05:24:09.622Z,39.90
2019-03-20T05:26:41.028Z,36.30
2019-03-20T05:29:12.368Z,57.40
2019-03-20T05:31:44.689Z,66.47
2019-03-20T05:34:16.027Z,60.67
2019-03-20T05:36:47.361Z,52.00
2019-03-20T05:39:18.672Z,46.98
2019-03-20T05:41:50.083Z,41.28
2019-03-20T05:44:21.455Z,47.27
2019-03-20T05:46:52.786Z,39.10
2019-03-20T05:49:24.209Z,52.15
2019-03-20T05:51:55.456Z,54.65
2019-03-20T05:54:26.881Z,50.08
2019-03-20T05:56:58.352Z,53.17
2019-03-20T05:59:29.732Z,48.85
2019-03-20T06:02:01.043Z,63.13
2019-03-20T06:04:32.507Z,45.23
2019-03-20T06:07:03.944Z,60.95
2019-03-20T06:09:35.315Z,73.57
2019-03-20T06:12:06.693Z,68.00
2019-03-20T06:14:38.102Z,79.25
2019-03-20T06:17:09.364Z,82.70
2019-03-20T06:19:40.828Z,55.45
2019-03-20T06:22:12.222Z,56.53
2019-03-20T06:24:43.671Z,44.75
2019-03-20T06:27:15.035Z,48.05
2019-03-20T06:29:46.465Z,46.75
2019-03-20T06:32:17.866Z,42.17
2019-03-20T06:34:49.261Z,47.05
2019-03-20T06:37:20.709Z,46.40
2019-03-20T06:39:53.386Z,49.55
2019-03-20T06:42:25.200Z,41.28
2019-03-20T06:44:56.557Z,44.23
2019-03-20T06:47:27.941Z,29.67
2019-03-20T06:50:00.273Z,39.80
2019-03-20T06:52:32.392Z,41.83
2019-03-20T06:55:04.138Z,38.98
2019-03-20T06:57:35.493Z,39.38
2019-03-20T07:00:39.981Z,40.73
2019-03-20T07:03:29.232Z,39.50
2019-03-20T07:06:22.014Z,35.08
2019-03-20T07:09:17.965Z,35.95
2019-03-20T07:11:49.319Z,46.18
2019-03-20T07:14:20.730Z,42.90
2019-03-20T07:16:52.072Z,28.42
2019-03-20T07:19:23.454Z,48.52
2019-03-20T07:21:54.985Z,39.92
2019-03-20T07:24:26.376Z,42.15
2019-03-20T07:26:57.744Z,60.85
2019-03-20T07:29:29.238Z,52.90
2019-03-20T07:32:00.668Z,46.18
2019-03-20T07:34:32.054Z,41.05
2019-03-20T07:37:03.384Z,48.10
2019-03-20T07:39:34.769Z,51.77
2019-03-20T07:42:06.126Z,42.27
2019-03-20T07:44:37.584Z,35.75
2019-03-20T07:47:08.940Z,43.92
2019-03-20T07:49:40.295Z,41.40
2019-03-20T07:52:11.665Z,37.03
2019-03-20T07:54:43.102Z,29.37
2019-03-20T07:57:14.493Z,40.63
2019-03-20T07:59:45.815Z,38.65
2019-03-20T08:02:17.163Z,46.75
2019-03-20T08:04:48.519Z,52.40
2019-03-20T08:07:19.786Z,47.33
2019-03-20T08:09:51.030Z,47.65
2019-03-20T08:12:22.460Z,47.98
2019-03-20T08:14:53.971Z,49.33
2019-03-20T08:17:25.301Z,50.92
2019-03-20T08:19:56.561Z,55.03
2019-03-20T08:22:27.959Z,42.35
2019-03-20T08:24:59.404Z,44.98
2019-03-20T08:27:30.809Z,45.52
2019-03-20T08:30:02.140Z,49.48
2019-03-20T08:32:33.476Z,44.93
2019-03-20T08:35:07.455Z,45.88
2019-03-20T08:37:38.990Z,45.38
2019-03-20T08:40:15.508Z,44.60
2019-03-20T08:42:46.849Z,45.75
2019-03-20T08:45:19.463Z,47.08
2019-03-20T08:47:50.860Z,46.10
2019-03-20T08:50:25.990Z,53.52
2019-03-20T08:52:57.382Z,46.65
2019-03-20T08:55:28.753Z,48.45
2019-03-20T08:58:00.190Z,49.08
2019-03-20T09:00:31.490Z,49.10
2019-03-20T09:03:02.871Z,42.35
2019-03-20T09:05:34.355Z,27.62
2019-03-20T09:08:05.747Z,41.90
2019-03-20T09:10:37.091Z,37.55
2019-03-20T09:13:08.493Z,41.25
2019-03-20T09:15:39.865Z,33.73
2019-03-20T09:18:11.257Z,36.35
2019-03-20T09:20:42.633Z,38.92
2019-03-20T09:23:14.129Z,37.83
2019-03-20T09:25:45.412Z,37.00
2019-03-20T09:28:16.754Z,33.30
2019-03-20T09:30:48.071Z,39.58
2019-03-20T09:33:19.529Z,35.80
2019-03-20T09:35:50.954Z,39.33
2019-03-20T09:38:22.292Z,37.17
2019-03-20T09:40:53.653Z,36.73
2019-03-20T09:43:25.084Z,34.67
2019-03-20T09:45:57.128Z,36.58
2019-03-20T09:48:28.822Z,35.40
2019-03-20T09:51:00.284Z,37.15
2019-03-20T09:53:31.625Z,32.35
2019-03-20T09:56:03.203Z,32.17
2019-03-20T09:58:34.633Z,35.73
2019-03-20T10:01:06.029Z,33.33
2019-03-20T10:03:37.296Z,32.42
2019-03-20T10:06:08.627Z,31.35
2019-03-20T10:08:39.925Z,32.55
2019-03-20T10:11:11.209Z,34.15
2019-03-20T10:13:42.476Z,36.10
2019-03-20T10:16:13.866Z,37.35
2019-03-20T10:18:45.227Z,38.38
2019-03-20T10:21:16.512Z,40.25
2019-03-20T10:23:47.779Z,36.53
2019-03-20T10:26:19.106Z,35.40
2019-03-20T10:28:50.486Z,38.70
2019-03-20T10:31:21.872Z,36.60
2019-03-20T10:33:53.272Z,37.93
2019-03-20T10:36:24.702Z,35.43
2019-03-20T10:39:05.932Z,35.98
2019-03-20T10:41:29.205Z,30.68
2019-03-20T10:44:00.649Z,34.95
2019-03-20T10:46:31.970Z,34.10
2019-03-20T10:49:03.332Z,34.88
2019-03-20T10:51:34.613Z,34.35
2019-03-20T10:54:07.279Z,32.65
2019-03-20T10:56:40.619Z,33.95
2019-03-20T10:59:11.906Z,33.45
2019-03-20T11:01:43.372Z,31.00
2019-03-20T11:04:14.709Z,31.80
2019-03-20T11:06:46.006Z,34.15
2019-03-20T11:09:18.701Z,32.35
2019-03-20T11:11:51.373Z,35.30
2019-03-20T11:14:22.893Z,34.88
2019-03-20T11:16:54.393Z,34.08
2019-03-20T11:19:25.721Z,37.13
2019-03-20T11:21:57.092Z,38.10
2019-03-20T11:24:28.340Z,42.25
2019-03-20T11:26:59.799Z,40.63
2019-03-20T11:29:31.231Z,39.33
2019-03-20T11:32:02.490Z,37.35
2019-03-20T11:34:33.738Z,35.43
2019-03-20T11:37:05.136Z,34.00
2019-03-20T11:39:36.535Z,34.10
2019-03-20T11:42:07.867Z,31.20
2019-03-20T11:44:39.271Z,34.55
2019-03-20T11:47:10.638Z,31.90
2019-03-20T11:49:43.101Z,29.12
2019-03-20T11:52:14.378Z,26.50
2019-03-20T11:54:45.811Z,30.02
2019-03-20T11:57:17.156Z,28.83
2019-03-20T11:59:48.470Z,27.07
2019-03-20T12:02:27.983Z,27.50
2019-03-20T12:04:54.076Z,27.75
2019-03-20T12:07:25.711Z,26.68
2019-03-20T12:09:58.845Z,28.15
2019-03-20T12:12:30.333Z,26.20
2019-03-20T12:15:01.685Z,25.00
2019-03-20T12:17:32.961Z,24.82
2019-03-20T12:20:07.805Z,25.37
2019-03-20T12:22:39.201Z,24.60
2019-03-20T12:25:13.573Z,25.37
2019-03-20T12:27:44.996Z,24.65
2019-03-20T12:30:20.576Z,23.30
2019-03-20T12:32:51.972Z,25.60
2019-03-20T12:35:24.688Z,23.85
2019-03-20T12:37:56.025Z,23.85
2019-03-20T12:40:31.632Z,24.87
2019-03-20T12:43:03.027Z,25.30
2019-03-20T12:45:38.416Z,25.43
2019-03-20T12:48:11.423Z,25.30
2019-03-20T12:50:44.072Z,26.05
2019-03-20T12:53:30.709Z,28.38
2019-03-20T12:56:02.077Z,30.05
2019-03-20T12:58:33.333Z,26.75
2019-03-20T13:01:04.779Z,27.40
2019-03-20T13:03:36.205Z,29.45
2019-03-20T13:06:07.562Z,30.05
2019-03-20T13:08:38.879Z,31.30
2019-03-20T13:11:10.340Z,32.20
2019-03-20T13:13:41.708Z,33.48
2019-03-20T13:16:13.043Z,33.58
2019-03-20T13:18:44.442Z,31.77
2019-03-20T13:21:15.762Z,31.77
2019-03-20T13:23:47.146Z,31.87
2019-03-20T13:26:18.525Z,35.58
2019-03-20T13:28:49.856Z,35.33
2019-03-20T13:31:23.355Z,33.75
2019-03-20T13:33:54.616Z,32.75
2019-03-20T13:36:25.983Z,34.80
2019-03-20T13:38:57.405Z,36.00
2019-03-20T13:41:28.775Z,34.88
2019-03-20T13:44:00.023Z,33.85
2019-03-20T13:46:31.428Z,27.42
2019-03-20T13:49:02.772Z,31.87
2019-03-20T13:51:34.123Z,30.80
2019-03-20T13:54:05.674Z,34.67
2019-03-20T13:56:36.980Z,31.97
2019-03-20T13:59:08.299Z,34.98
2019-03-20T14:01:39.687Z,31.15
2019-03-20T14:04:10.952Z,34.40
2019-03-20T14:06:42.280Z,31.68
2019-03-20T14:09:13.712Z,29.90
2019-03-20T14:11:45.128Z,28.27
2019-03-20T14:14:16.439Z,28.35
2019-03-20T14:16:47.748Z,28.42
2019-03-20T14:19:20.742Z,28.12
2019-03-20T14:21:54.029Z,31.15
2019-03-20T14:24:25.717Z,30.90
2019-03-20T14:27:02.198Z,32.35
2019-03-20T14:29:33.509Z,31.07
2019-03-20T14:32:04.860Z,30.88
2019-03-20T14:34:36.155Z,31.82
2019-03-20T14:37:07.550Z,31.73
2019-03-20T14:39:38.958Z,30.52
2019-03-20T14:42:10.308Z,31.60
2019-03-20T14:44:42.712Z,28.92
2019-03-20T14:47:14.092Z,32.33
2019-03-20T14:49:45.582Z,34.92
2019-03-20T14:52:16.812Z,32.80
2019-03-20T14:54:48.182Z,32.65
2019-03-20T14:57:19.476Z,30.72
2019-03-20T14:59:50.866Z,32.15
2019-03-20T15:02:22.177Z,33.20
2019-03-20T15:04:53.511Z,30.45
2019-03-20T15:07:24.964Z,31.90
2019-03-20T15:09:56.398Z,30.43
2019-03-20T15:12:27.726Z,32.40
2019-03-20T15:14:59.191Z,31.27
2019-03-20T15:17:30.503Z,32.53
2019-03-20T15:20:02.020Z,36.58
2019-03-20T15:22:33.323Z,41.45
2019-03-20T15:25:07.083Z,40.67
2019-03-20T15:27:38.338Z,49.27
2019-03-20T15:30:18.835Z,40.88
2019-03-20T15:32:50.140Z,42.98
2019-03-20T15:35:21.550Z,42.20
2019-03-20T15:37:52.903Z,39.25
2019-03-20T15:40:26.387Z,39.85
2019-03-20T15:42:57.780Z,42.58
2019-03-20T15:45:29.094Z,42.73
2019-03-20T15:48:00.503Z,41.35
2019-03-20T15:50:31.855Z,41.65
2019-03-20T15:53:03.134Z,43.60
2019-03-20T15:55:39.575Z,48.30
2019-03-20T15:58:10.847Z,51.05
2019-03-20T16:00:42.202Z,47.17
2019-03-20T16:03:23.506Z,48.87
2019-03-20T16:05:55.595Z,45.58
2019-03-20T16:08:26.952Z,45.80
2019-03-20T16:11:06.169Z,46.80
2019-03-20T16:13:36.366Z,45.95
2019-03-20T16:16:19.956Z,48.48
2019-03-20T16:18:53.047Z,49.83
2019-03-20T16:21:24.455Z,50.50
2019-03-20T16:23:55.713Z,49.50
2019-03-20T16:26:27.141Z,50.35
2019-03-20T16:28:58.339Z,52.98
2019-03-20T16:31:29.788Z,56.90
2019-03-20T16:34:01.233Z,62.27
2019-03-20T16:36:32.632Z,62.58
2019-03-20T16:39:05.549Z,64.67
2019-03-20T16:41:36.877Z,63.73
2019-03-20T16:44:08.192Z,67.35
2019-03-20T16:46:39.599Z,63.52
2019-03-20T16:49:10.868Z,54.13
2019-03-20T16:51:42.264Z,48.90
2019-03-20T16:54:13.591Z,47.62
2019-03-20T16:56:44.921Z,40.45
2019-03-20T16:59:16.286Z,40.65
2019-03-20T17:01:47.653Z,41.33
2019-03-20T17:04:19.107Z,39.83
2019-03-20T17:06:50.504Z,39.38
2019-03-20T17:09:21.877Z,38.78
2019-03-20T17:11:53.351Z,38.10
2019-03-20T17:14:24.698Z,36.68
2019-03-20T17:16:56.164Z,37.85
2019-03-20T17:19:27.584Z,35.08
2019-03-20T17:21:58.953Z,36.95
2019-03-20T17:24:31.348Z,38.15
2019-03-20T17:27:02.770Z,33.83
2019-03-20T17:29:34.092Z,34.55
2019-03-20T17:32:05.503Z,36.42
2019-03-20T17:34:36.892Z,35.78
2019-03-20T17:37:08.280Z,34.70
2019-03-20T17:39:39.641Z,34.90
2019-03-20T17:42:10.983Z,33.90
2019-03-20T17:44:42.370Z,35.08
2019-03-20T17:47:13.784Z,35.38
2019-03-20T17:49:45.196Z,33.65
2019-03-20T17:52:16.593Z,34.53
2019-03-20T17:54:47.951Z,37.28
2019-03-20T17:57:19.373Z,36.20
2019-03-20T17:59:50.706Z,35.28
2019-03-20T18:02:24.249Z,34.98
2019-03-20T18:04:55.132Z,35.95
2019-03-20T18:07:26.526Z,37.03
2019-03-20T18:09:57.922Z,36.88
2019-03-20T18:12:29.266Z,36.63
2019-03-20T18:15:00.631Z,37.58
2019-03-20T18:17:33.296Z,36.93
2019-03-20T18:20:07.430Z,37.38
2019-03-20T18:22:38.724Z,36.20
2019-03-20T18:25:12.832Z,37.60
2019-03-20T18:27:44.217Z,38.53
2019-03-20T18:30:27.006Z,26.35
2019-03-20T18:32:58.377Z,30.97
2019-03-20T18:35:29.785Z,29.98
2019-03-20T18:38:01.221Z,32.83
2019-03-20T18:40:32.629Z,28.65
2019-03-20T18:43:03.967Z,30.68
2019-03-20T18:45:35.342Z,22.45
2019-03-20T18:48:06.676Z,31.35
2019-03-20T18:50:39.327Z,29.55
2019-03-20T18:53:11.646Z,31.17
2019-03-20T18:55:43.053Z,33.48
2019-03-20T18:58:14.389Z,30.32
2019-03-20T19:00:45.790Z,35.05
2019-03-20T19:03:25.791Z,31.65
2019-03-20T19:06:06.517Z,31.20
2019-03-20T19:08:37.880Z,33.28
2019-03-20T19:11:09.398Z,31.00
2019-03-20T19:13:40.763Z,31.70
2019-03-20T19:16:12.085Z,31.25
2019-03-20T19:18:43.521Z,34.88
2019-03-20T19:21:14.902Z,31.85
2019-03-20T19:23:46.512Z,31.15
2019-03-20T19:26:17.809Z,28.30
2019-03-20T19:28:49.233Z,27.80
2019-03-20T19:31:20.621Z,23.30
2019-03-20T19:33:52.096Z,24.25
2019-03-20T19:36:23.415Z,19.73
2019-03-20T19:38:54.794Z,16.25
2019-03-20T19:41:26.178Z,19.77
2019-03-20T19:43:57.572Z,19.55
2019-03-20T19:46:28.915Z,20.43
2019-03-20T19:49:00.339Z,20.62
2019-03-20T19:51:31.717Z,19.73
2019-03-20T19:54:04.779Z,20.77
2019-03-20T19:56:36.161Z,20.68
2019-03-20T19:59:07.527Z,17.87
2019-03-20T20:01:38.959Z,18.98
2019-03-20T20:04:10.365Z,19.50
2019-03-20T20:06:41.829Z,18.77
2019-03-20T20:09:13.244Z,19.42
2019-03-20T20:11:44.635Z,18.42
2019-03-20T20:14:16.100Z,19.82
2019-03-20T20:16:47.534Z,17.07
2019-03-20T20:19:18.886Z,18.75
2019-03-20T20:21:50.152Z,17.45
2019-03-20T20:24:21.547Z,17.73
2019-03-20T20:26:52.834Z,12.43
2019-03-20T20:29:24.186Z,15.68
2019-03-20T20:31:55.523Z,16.35
2019-03-20T20:34:26.936Z,16.45
2019-03-20T20:36:58.278Z,15.50
2019-03-20T20:39:29.646Z,15.58
2019-03-20T20:42:00.932Z,15.43
2019-03-20T20:44:32.253Z,12.85
2019-03-20T20:47:04.038Z,15.43
2019-03-20T20:49:35.348Z,14.93
2019-03-20T20:52:06.664Z,16.23
2019-03-20T20:54:38.056Z,15.60
2019-03-20T20:57:09.419Z,14.70
2019-03-20T20:59:40.733Z,16.97
2019-03-20T21:02:12.098Z,15.32
2019-03-20T21:04:43.523Z,10.68
2019-03-20T21:07:14.918Z,16.23
2019-03-20T21:09:46.338Z,14.83
2019-03-20T21:12:17.776Z,14.07
2019-03-20T21:14:49.175Z,13.58
2019-03-20T21:17:23.682Z,16.48
2019-03-20T21:19:55.011Z,14.98
2019-03-20T21:22:35.371Z,14.30
2019-03-20T21:25:06.796Z,13.95
2019-03-20T21:28:03.702Z,13.83
2019-03-20T21:30:50.001Z,14.18
2019-03-20T21:33:33.432Z,13.68
2019-03-20T21:36:39.523Z,13.38
2019-03-20T21:39:11.051Z,14.35
2019-03-20T21:42:11.458Z,13.20
2019-03-20T21:45:02.528Z,15.15
2019-03-20T21:47:33.634Z,15.48
2019-03-20T21:50:27.329Z,16.17
2019-03-20T21:52:58.639Z,16.25
2019-03-20T21:55:49.720Z,16.52
2019-03-20T21:58:27.000Z,16.95
2019-03-20T22:01:27.276Z,16.65
2019-03-20T22:03:58.501Z,17.85
2019-03-20T22:06:54.273Z,16.85
2019-03-20T22:09:34.600Z,16.73
2019-03-20T22:12:30.230Z,16.70
2019-03-20T22:15:13.644Z,17.37
2019-03-20T22:18:09.454Z,17.00
2019-03-20T22:20:56.138Z,17.00
2019-03-20T22:23:33.569Z,16.90
2019-03-20T22:26:25.976Z,16.52
2019-03-20T22:29:24.849Z,17.70
2019-03-20T22:32:07.951Z,18.48
2019-03-20T22:35:00.392Z,17.60
2019-03-20T22:37:31.835Z,17.15
2019-03-20T22:40:15.086Z,15.58
2019-03-20T22:43:13.362Z,15.13
2019-03-20T22:46:02.741Z,15.85
2019-03-20T22:48:56.430Z,15.53
2019-03-20T22:51:47.457Z,15.85
2019-03-20T22:54:41.426Z,13.62
2019-03-20T22:57:28.956Z,16.30
2019-03-20T23:00:00.409Z,13.98
2019-03-20T23:02:37.608Z,14.05
2019-03-20T23:05:10.748Z,13.00
2019-03-20T23:07:42.127Z,13.10
2019-03-20T23:10:16.435Z,12.30
2019-03-20T23:12:49.647Z,13.18
2019-03-20T23:15:22.182Z,13.00
2019-03-20T23:17:53.507Z,12.98
2019-03-20T23:20:27.804Z,13.03
2019-03-20T23:22:59.218Z,12.40
2019-03-20T23:25:30.480Z,11.73
2019-03-20T23:28:01.903Z,13.25
2019-03-20T23:30:36.327Z,13.83
2019-03-20T23:33:07.730Z,12.20
2019-03-20T23:35:39.128Z,13.85
2019-03-20T23:38:10.444Z,13.32
2019-03-20T23:40:41.838Z,14.18
2019-03-20T23:43:14.443Z,14.33
2019-03-20T23:45:45.721Z,14.05
2019-03-20T23:48:32.171Z,14.15
2019-03-20T23:51:06.617Z,13.28
2019-03-20T23:53:39.131Z,13.65
2019-03-20T23:56:10.577Z,13.58
2019-03-20T23:58:41.973Z,11.30
